Time;durP1;ratioP1;P1;durP2;ratioP2;P2;SDS_P1;SDS_P2;PMS_P1;PMS_P2;Temp;Humidity;BMP_temperature;BMP_pressure;BME280_temperature;BME280_humidity;BME280_pressure;Samples;Min_cycle;Max_cycle;Signal;HPM_P1;HPM_P2
2023/01/08 00:00:14;;;;;;;14.90;10.17;;;7.50;99.90;;;;;;5024912;28;20469;-74
2023/01/08 00:02:40;;;;;;;12.90;9.80;;;7.50;99.90;;;;;;5025620;28;20457;-74
2023/01/08 00:05:10;;;;;;;15.77;10.57;;;7.60;99.90;;;;;;5021050;28;20453;-74
2023/01/08 00:07:36;;;;;;;17.43;11.10;;;7.60;99.90;;;;;;5023883;28;20453;-75
2023/01/08 00:10:05;;;;;;;14.17;10.87;;;7.50;99.90;;;;;;5028105;28;20515;-74
2023/01/08 00:12:33;;;;;;;20.53;10.87;;;7.50;99.90;;;;;;5021865;28;20447;-75
2023/01/08 00:15:00;;;;;;;16.40;10.53;;;7.40;99.90;;;;;;5023663;28;20458;-74
2023/01/08 00:17:26;;;;;;;17.10;10.57;;;7.40;99.90;;;;;;5026778;28;20487;-75
2023/01/08 00:19:53;;;;;;;14.37;10.27;;;7.30;99.90;;;;;;5017801;28;20516;-74
2023/01/08 00:22:19;;;;;;;17.03;9.80;;;7.30;99.90;;;;;;5025469;28;20926;-75
2023/01/08 00:24:46;;;;;;;18.17;11.40;;;7.40;99.90;;;;;;5026099;28;20506;-75
2023/01/08 00:27:14;;;;;;;19.10;10.77;;;7.40;99.90;;;;;;5019169;28;20450;-74
2023/01/08 00:29:41;;;;;;;19.03;10.60;;;7.40;99.90;;;;;;5022835;28;20455;-74
2023/01/08 00:32:07;;;;;;;16.33;10.53;;;7.30;99.90;;;;;;5022389;28;20457;-74
2023/01/08 00:34:34;;;;;;;11.07;9.10;;;7.40;99.90;;;;;;5027150;28;20520;-75
2023/01/08 00:37:00;;;;;;;11.50;8.50;;;7.40;99.90;;;;;;5020334;28;20528;-74
2023/01/08 00:39:27;;;;;;;14.20;10.53;;;7.50;99.90;;;;;;5017395;28;20959;-74
2023/01/08 00:41:54;;;;;;;15.13;9.40;;;7.60;99.90;;;;;;5020059;28;20942;-74
2023/01/08 00:44:21;;;;;;;14.30;9.90;;;7.70;99.90;;;;;;5016167;28;20453;-75
2023/01/08 00:46:48;;;;;;;18.20;9.37;;;7.70;99.90;;;;;;5023915;28;21115;-74
2023/01/08 00:49:15;;;;;;;13.90;9.17;;;7.70;99.90;;;;;;5024227;28;20486;-75
2023/01/08 00:51:41;;;;;;;13.23;9.20;;;7.80;99.90;;;;;;5024482;28;20474;-75
2023/01/08 00:54:09;;;;;;;14.00;10.00;;;7.80;99.90;;;;;;5027511;28;21023;-74
2023/01/08 00:56:36;;;;;;;15.13;10.40;;;7.70;99.90;;;;;;5024419;28;20543;-74
2023/01/08 00:59:02;;;;;;;13.43;9.87;;;7.70;99.90;;;;;;5031634;28;20446;-74
2023/01/08 01:01:30;;;;;;;13.43;9.73;;;7.70;99.90;;;;;;5032916;28;20527;-74
2023/01/08 01:03:57;;;;;;;17.03;9.77;;;7.70;99.90;;;;;;5028488;28;20509;-74
2023/01/08 01:06:23;;;;;;;12.60;9.70;;;7.70;99.90;;;;;;5025438;28;21220;-75
2023/01/08 01:08:51;;;;;;;16.60;10.23;;;7.70;99.90;;;;;;5025862;28;20453;-74
2023/01/08 01:11:20;;;;;;;14.33;9.97;;;7.70;99.90;;;;;;5029193;28;20561;-74
2023/01/08 01:13:46;;;;;;;16.43;9.40;;;7.70;99.90;;;;;;5031282;28;20964;-76
2023/01/08 01:16:13;;;;;;;12.63;8.90;;;7.70;99.90;;;;;;5024309;28;20458;-74
2023/01/08 01:18:41;;;;;;;16.30;9.47;;;7.70;99.90;;;;;;5022346;28;20521;-74
2023/01/08 01:21:12;;;;;;;16.53;11.00;;;7.70;99.90;;;;;;5026456;28;20473;-74
2023/01/08 01:23:38;;;;;;;13.70;9.70;;;7.70;99.90;;;;;;5024940;28;20451;-75
2023/01/08 01:26:05;;;;;;;18.93;10.40;;;7.70;99.90;;;;;;5023763;28;20937;-76
2023/01/08 01:28:32;;;;;;;14.20;10.23;;;7.70;99.90;;;;;;5027002;28;20553;-74
2023/01/08 01:30:58;;;;;;;13.47;9.40;;;7.70;99.90;;;;;;5026515;28;20528;-75
2023/01/08 01:33:25;;;;;;;12.30;9.33;;;7.70;99.90;;;;;;5019312;28;22105;-74
2023/01/08 01:36:01;;;;;;;13.70;8.90;;;7.80;99.90;;;;;;5029843;28;20453;-75
2023/01/08 01:38:28;;;;;;;14.60;7.80;;;7.80;99.90;;;;;;5029901;28;20863;-75
2023/01/08 01:40:55;;;;;;;10.40;7.80;;;7.90;99.90;;;;;;5020005;28;20479;-75
2023/01/08 01:43:37;;;;;;;9.73;7.00;;;8.00;99.90;;;;;;5020969;28;20455;-75
2023/01/08 01:46:06;;;;;;;11.40;7.80;;;8.00;99.90;;;;;;5032053;28;20891;-75
2023/01/08 01:48:33;;;;;;;8.00;7.20;;;8.10;99.90;;;;;;5022476;28;20503;-75
2023/01/08 01:51:01;;;;;;;11.57;7.50;;;8.20;99.90;;;;;;5024498;28;20519;-75
2023/01/08 01:53:32;;;;;;;11.20;8.27;;;8.30;99.90;;;;;;5030076;28;20865;-75
2023/01/08 01:56:01;;;;;;;9.13;6.97;;;8.40;99.90;;;;;;5024876;28;20532;-75
2023/01/08 01:58:29;;;;;;;9.40;6.60;;;8.40;99.90;;;;;;5029507;28;20910;-75
2023/01/08 02:00:58;;;;;;;7.93;7.10;;;8.50;99.90;;;;;;5031798;28;20916;-76
2023/01/08 02:03:26;;;;;;;7.57;6.77;;;8.60;99.90;;;;;;5024691;28;20818;-74
2023/01/08 02:05:58;;;;;;;8.07;6.83;;;8.60;99.90;;;;;;5026484;28;20459;-75
2023/01/08 02:08:35;;;;;;;11.70;8.93;;;8.70;99.90;;;;;;5031243;28;20450;-74
2023/01/08 02:11:10;;;;;;;11.10;8.60;;;8.60;99.90;;;;;;5031915;28;20528;-74
2023/01/08 02:13:39;;;;;;;12.90;8.60;;;8.50;99.90;;;;;;5022162;28;20957;-74
2023/01/08 02:16:13;;;;;;;11.07;8.97;;;8.40;99.90;;;;;;5025926;28;20446;-74
2023/01/08 02:18:47;;;;;;;12.43;8.87;;;8.30;99.90;;;;;;5017711;28;20485;-74
2023/01/08 02:21:19;;;;;;;11.97;8.87;;;8.20;99.90;;;;;;5029082;28;20565;-75
2023/01/08 02:23:57;;;;;;;12.47;9.40;;;8.20;99.90;;;;;;5023054;28;20458;-75
2023/01/08 02:26:27;;;;;;;12.40;9.37;;;8.20;99.90;;;;;;5022818;28;20453;-75
2023/01/08 02:28:58;;;;;;;14.30;10.00;;;8.20;99.90;;;;;;5025449;28;20518;-75
2023/01/08 02:31:27;;;;;;;13.60;8.97;;;8.20;99.90;;;;;;5013947;28;21069;-74
2023/01/08 02:33:54;;;;;;;14.83;8.87;;;8.20;99.90;;;;;;5029393;28;21004;-74
2023/01/08 02:36:35;;;;;;;13.63;9.27;;;8.30;99.90;;;;;;5030141;28;20946;-75
2023/01/08 02:39:20;;;;;;;14.00;8.40;;;8.30;99.90;;;;;;5019862;28;20547;-74
2023/01/08 02:42:05;;;;;;;14.00;7.80;;;8.30;99.90;;;;;;5024900;28;21068;-74
2023/01/08 02:44:40;;;;;;;13.93;8.07;;;8.30;99.90;;;;;;5024485;28;20461;-75
2023/01/08 02:47:15;;;;;;;11.30;7.90;;;8.30;99.90;;;;;;5023111;28;20861;-75
2023/01/08 02:49:43;;;;;;;12.47;8.43;;;8.30;99.90;;;;;;5024992;28;20763;-74
2023/01/08 02:52:14;;;;;;;10.30;8.10;;;8.30;99.90;;;;;;5024796;28;20458;-75
2023/01/08 02:54:43;;;;;;;10.60;7.90;;;8.30;99.90;;;;;;5016194;28;20461;-75
2023/01/08 02:57:14;;;;;;;10.33;7.90;;;8.30;99.90;;;;;;5020319;28;20493;-75
2023/01/08 02:59:43;;;;;;;11.53;7.87;;;8.30;99.90;;;;;;5027283;28;20533;-75
2023/01/08 03:02:11;;;;;;;12.80;8.23;;;8.30;99.90;;;;;;5026339;28;20508;-75
2023/01/08 03:04:44;;;;;;;10.33;7.90;;;8.30;99.90;;;;;;5022644;28;21028;-75
2023/01/08 03:07:11;;;;;;;12.60;8.23;;;8.30;99.90;;;;;;5028415;28;20581;-75
2023/01/08 03:09:38;;;;;;;9.43;7.67;;;8.30;99.90;;;;;;5023485;28;20957;-75
2023/01/08 03:12:09;;;;;;;12.10;8.13;;;8.30;99.90;;;;;;5026305;28;20516;-75
2023/01/08 03:14:40;;;;;;;13.33;8.30;;;8.30;99.90;;;;;;5026726;28;20562;-74
2023/01/08 03:17:13;;;;;;;15.67;8.93;;;8.30;99.90;;;;;;5018724;28;20459;-75
2023/01/08 03:19:42;;;;;;;10.07;8.50;;;8.20;99.90;;;;;;5018226;28;20471;-74
2023/01/08 03:22:12;;;;;;;16.13;8.93;;;8.20;99.90;;;;;;5020976;28;20454;-74
2023/01/08 03:24:41;;;;;;;12.97;8.97;;;8.10;99.90;;;;;;5019790;28;20509;-74
2023/01/08 03:27:12;;;;;;;13.17;8.97;;;8.10;99.90;;;;;;5029003;28;20500;-75
2023/01/08 03:29:41;;;;;;;11.20;8.57;;;8.00;99.90;;;;;;5022197;28;20458;-74
2023/01/08 03:32:11;;;;;;;13.13;8.90;;;8.00;99.90;;;;;;5019288;28;20517;-75
2023/01/08 03:34:41;;;;;;;12.17;8.90;;;8.00;99.90;;;;;;5027786;28;20502;-75
2023/01/08 03:37:10;;;;;;;13.37;9.40;;;8.00;99.90;;;;;;5028474;28;20508;-75
2023/01/08 03:39:42;;;;;;;12.67;8.47;;;8.00;99.90;;;;;;5024025;28;20447;-75
2023/01/08 03:42:13;;;;;;;14.90;9.30;;;7.90;99.90;;;;;;5024345;28;20450;-75
2023/01/08 03:44:41;;;;;;;14.80;10.20;;;7.90;99.90;;;;;;5013459;28;20450;-74
2023/01/08 03:47:10;;;;;;;17.00;10.23;;;7.90;99.90;;;;;;5026523;28;20535;-74
2023/01/08 03:49:38;;;;;;;14.13;9.83;;;7.90;99.90;;;;;;5029539;28;20454;-75
2023/01/08 03:52:05;;;;;;;14.30;10.43;;;7.90;99.90;;;;;;5022673;28;20465;-74
2023/01/08 03:54:34;;;;;;;14.97;10.50;;;7.90;99.90;;;;;;5017071;28;20520;-74
2023/01/08 03:57:00;;;;;;;16.87;11.03;;;7.90;99.90;;;;;;5021622;28;20455;-74
2023/01/08 03:59:27;;;;;;;16.33;11.37;;;7.90;99.90;;;;;;5026868;28;21044;-75
2023/01/08 04:01:55;;;;;;;17.23;11.50;;;7.80;99.90;;;;;;5024522;28;20463;-75
2023/01/08 04:04:22;;;;;;;20.10;12.37;;;7.80;99.90;;;;;;5022544;28;20453;-75
2023/01/08 04:06:48;;;;;;;20.27;13.00;;;7.80;99.90;;;;;;5020427;28;20457;-74
2023/01/08 04:09:15;;;;;;;17.93;13.00;;;7.80;99.90;;;;;;5018522;28;20482;-74
2023/01/08 04:11:41;;;;;;;15.53;11.50;;;7.70;99.90;;;;;;5027540;28;20532;-74
2023/01/08 04:14:10;;;;;;;17.77;12.90;;;7.70;99.90;;;;;;5026383;28;20544;-75
2023/01/08 04:16:36;;;;;;;23.10;13.93;;;7.70;99.90;;;;;;5018440;28;20508;-75
2023/01/08 04:19:04;;;;;;;18.90;12.90;;;7.70;99.90;;;;;;5015331;28;20909;-75
2023/01/08 04:21:31;;;;;;;24.00;14.33;;;7.60;99.90;;;;;;5022920;28;20527;-74
2023/01/08 04:23:57;;;;;;;19.70;13.83;;;7.60;99.90;;;;;;5024409;28;20488;-75
2023/01/08 04:26:24;;;;;;;21.60;14.97;;;7.60;99.90;;;;;;5026785;28;20453;-75
2023/01/08 04:28:51;;;;;;;24.43;13.47;;;7.60;99.90;;;;;;5020203;28;20509;-75
2023/01/08 04:31:17;;;;;;;24.10;16.23;;;7.60;99.90;;;;;;5023672;28;20481;-75
2023/01/08 04:33:44;;;;;;;23.07;14.93;;;7.50;99.90;;;;;;5028290;28;20454;-75
2023/01/08 04:36:12;;;;;;;25.60;14.70;;;7.50;99.90;;;;;;5028600;28;20458;-76
2023/01/08 04:38:38;;;;;;;24.13;15.33;;;7.50;99.90;;;;;;5029835;28;20540;-75
2023/01/08 04:41:05;;;;;;;24.63;15.80;;;7.50;99.90;;;;;;5030335;28;20550;-76
2023/01/08 04:43:33;;;;;;;24.57;16.23;;;7.50;99.90;;;;;;5022302;28;20469;-75
2023/01/08 04:46:00;;;;;;;22.77;15.40;;;7.50;99.90;;;;;;5018313;28;20512;-75
2023/01/08 04:48:27;;;;;;;25.50;16.37;;;7.50;99.90;;;;;;5031845;28;20476;-75
2023/01/08 04:50:54;;;;;;;22.63;14.57;;;7.50;99.90;;;;;;5032535;28;20473;-75
2023/01/08 04:53:22;;;;;;;24.90;15.50;;;7.50;99.90;;;;;;5028007;28;21026;-75
2023/01/08 04:55:49;;;;;;;22.43;14.73;;;7.50;99.90;;;;;;5024324;28;20497;-75
2023/01/08 04:58:15;;;;;;;23.00;15.00;;;7.50;99.90;;;;;;5026501;28;20998;-75
2023/01/08 05:00:42;;;;;;;21.03;14.53;;;7.60;99.90;;;;;;5025524;28;20529;-75
2023/01/08 05:03:09;;;;;;;20.07;14.07;;;7.60;99.90;;;;;;5024799;28;20499;-75
2023/01/08 05:05:36;;;;;;;20.43;13.63;;;7.60;99.90;;;;;;5026759;28;21723;-75
2023/01/08 05:08:03;;;;;;;23.17;15.93;;;7.60;99.90;;;;;;5027846;28;20501;-75
2023/01/08 05:10:30;;;;;;;21.80;14.50;;;7.60;99.90;;;;;;5020190;28;20474;-75
2023/01/08 05:12:58;;;;;;;22.63;13.60;;;7.50;99.90;;;;;;5020531;28;21019;-75
2023/01/08 05:15:25;;;;;;;20.63;14.33;;;7.50;99.90;;;;;;5030833;28;20596;-75
2023/01/08 05:17:58;;;;;;;20.10;14.10;;;7.60;99.90;;;;;;5033026;28;20539;-75
2023/01/08 05:20:24;;;;;;;25.93;14.93;;;7.60;99.90;;;;;;5026634;28;20481;-74
2023/01/08 05:22:51;;;;;;;21.27;13.63;;;7.50;99.90;;;;;;5021234;28;20451;-74
2023/01/08 05:25:18;;;;;;;20.80;15.23;;;7.50;99.90;;;;;;5014275;28;21008;-74
2023/01/08 05:27:46;;;;;;;22.77;14.73;;;7.50;99.90;;;;;;5022872;28;20548;-73
2023/01/08 05:30:14;;;;;;;21.87;15.30;;;7.50;99.90;;;;;;5030501;28;20500;-73
2023/01/08 05:32:40;;;;;;;21.13;15.00;;;7.50;99.90;;;;;;5021947;28;20458;-73
2023/01/08 05:35:07;;;;;;;23.73;15.93;;;7.50;99.90;;;;;;5018226;28;20454;-73
2023/01/08 05:37:34;;;;;;;25.40;16.17;;;7.50;99.90;;;;;;5030106;28;20504;-73
2023/01/08 05:40:01;;;;;;;22.97;15.63;;;7.50;99.90;;;;;;5030245;28;20541;-73
2023/01/08 05:42:28;;;;;;;26.23;15.67;;;7.50;99.90;;;;;;5025507;28;20454;-73
2023/01/08 05:44:55;;;;;;;22.60;13.97;;;7.50;99.90;;;;;;5025870;28;20446;-73
2023/01/08 05:47:22;;;;;;;24.23;15.53;;;7.50;99.90;;;;;;5022955;28;20876;-73
2023/01/08 05:49:49;;;;;;;22.80;14.43;;;7.50;99.90;;;;;;5027764;28;20529;-73
2023/01/08 05:52:15;;;;;;;24.10;14.90;;;7.50;99.90;;;;;;5028187;28;20966;-73
2023/01/08 05:54:42;;;;;;;21.60;14.43;;;7.50;99.90;;;;;;5024431;28;20562;-74
2023/01/08 05:57:08;;;;;;;23.93;14.50;;;7.60;99.90;;;;;;5029196;28;21003;-73
2023/01/08 05:59:35;;;;;;;18.13;13.00;;;7.60;99.90;;;;;;5015675;28;20490;-73
2023/01/08 06:02:03;;;;;;;19.30;13.73;;;7.60;99.90;;;;;;5026102;28;20938;-73
2023/01/08 06:04:30;;;;;;;21.33;14.07;;;7.60;99.90;;;;;;5025672;28;20454;-73
2023/01/08 06:06:56;;;;;;;19.60;12.90;;;7.60;99.90;;;;;;5024284;28;20875;-73
2023/01/08 06:09:23;;;;;;;20.57;13.23;;;7.60;99.90;;;;;;5016144;28;20459;-74
2023/01/08 06:11:49;;;;;;;17.47;12.90;;;7.60;99.90;;;;;;5022294;28;20453;-73
2023/01/08 06:14:16;;;;;;;17.57;12.00;;;7.60;99.90;;;;;;5029195;28;20485;-74
2023/01/08 06:16:43;;;;;;;17.00;11.43;;;7.60;99.90;;;;;;5024122;28;21024;-74
2023/01/08 06:19:11;;;;;;;13.63;10.93;;;7.60;99.90;;;;;;4984692;28;1050886;-74
2023/01/08 06:21:38;;;;;;;15.03;10.60;;;7.60;99.90;;;;;;5016691;28;20227;-74
2023/01/08 06:24:05;;;;;;;11.30;8.77;;;7.60;99.90;;;;;;5022087;28;20454;-74
2023/01/08 06:26:32;;;;;;;13.40;9.37;;;7.60;99.90;;;;;;5028542;28;20458;-74
2023/01/08 06:28:59;;;;;;;10.93;8.43;;;7.60;99.90;;;;;;5026064;28;20455;-74
2023/01/08 06:31:25;;;;;;;8.83;7.93;;;7.70;99.90;;;;;;5025132;28;20531;-73
2023/01/08 06:33:52;;;;;;;9.27;7.93;;;7.70;99.90;;;;;;5025445;28;20505;-73
2023/01/08 06:36:20;;;;;;;7.33;6.57;;;7.70;99.90;;;;;;5028615;28;20458;-73
2023/01/08 06:38:46;;;;;;;6.83;6.20;;;7.70;99.90;;;;;;5026783;28;21037;-73
2023/01/08 06:41:13;;;;;;;6.70;6.03;;;7.70;99.90;;;;;;5023835;28;20481;-73
2023/01/08 06:43:39;;;;;;;7.90;6.53;;;7.70;99.90;;;;;;5018334;28;20454;-72
2023/01/08 06:46:07;;;;;;;9.80;8.80;;;7.80;99.90;;;;;;5021391;28;20462;-73
2023/01/08 06:48:34;;;;;;;11.80;9.97;;;7.80;99.90;;;;;;5028767;28;20505;-72
2023/01/08 06:51:01;;;;;;;13.30;10.60;;;7.80;99.90;;;;;;5025890;28;20536;-73
2023/01/08 06:53:29;;;;;;;12.60;10.60;;;7.80;99.90;;;;;;5021958;28;20463;-73
2023/01/08 06:55:57;;;;;;;13.87;11.43;;;7.70;99.90;;;;;;5018563;28;20469;-73
2023/01/08 06:58:24;;;;;;;15.90;11.37;;;7.80;99.90;;;;;;5023210;28;20856;-73
2023/01/08 07:00:51;;;;;;;13.73;11.70;;;7.70;99.90;;;;;;5022190;28;20989;-73
2023/01/08 07:03:18;;;;;;;17.10;12.00;;;7.70;99.90;;;;;;5025026;28;20887;-73
2023/01/08 07:05:44;;;;;;;17.57;12.73;;;7.70;99.90;;;;;;5019888;28;20451;-73
2023/01/08 07:08:13;;;;;;;22.03;13.27;;;7.70;99.90;;;;;;5015555;28;20454;-73
2023/01/08 07:10:41;;;;;;;18.07;13.20;;;7.70;99.90;;;;;;5027261;28;20481;-72
2023/01/08 07:13:08;;;;;;;21.17;14.70;;;7.70;99.90;;;;;;5029508;28;20488;-73
2023/01/08 07:15:36;;;;;;;20.23;15.10;;;7.70;99.90;;;;;;5022116;28;20472;-71
2023/01/08 07:18:04;;;;;;;21.20;13.60;;;7.70;99.90;;;;;;5015507;28;20501;-72
2023/01/08 07:20:31;;;;;;;21.00;13.97;;;7.70;99.90;;;;;;5014862;28;20850;-73
2023/01/08 07:23:01;;;;;;;17.90;13.90;;;7.70;99.90;;;;;;5028357;28;20605;-73
2023/01/08 07:25:28;;;;;;;20.40;14.07;;;7.70;99.90;;;;;;5025021;28;20479;-73
2023/01/08 07:27:56;;;;;;;19.87;13.57;;;7.80;99.90;;;;;;5025072;28;20454;-73
2023/01/08 07:30:23;;;;;;;21.57;14.30;;;7.80;99.90;;;;;;5018257;28;21006;-73
2023/01/08 07:32:50;;;;;;;16.30;12.27;;;7.80;99.90;;;;;;5020386;28;20454;-72
2023/01/08 07:35:17;;;;;;;16.07;11.37;;;7.80;99.90;;;;;;5028020;28;20463;-73
2023/01/08 07:37:43;;;;;;;13.90;10.87;;;7.80;99.90;;;;;;5021709;28;20962;-73
2023/01/08 07:40:12;;;;;;;12.53;10.13;;;7.80;99.90;;;;;;5018751;28;20494;-73
2023/01/08 07:42:38;;;;;;;15.03;9.17;;;7.80;99.90;;;;;;5019928;28;20555;-72
2023/01/08 07:45:07;;;;;;;15.00;10.53;;;7.80;99.90;;;;;;5024262;28;20890;-73
2023/01/08 07:47:34;;;;;;;13.10;10.53;;;7.80;99.90;;;;;;5025967;28;20807;-70
2023/01/08 07:50:01;;;;;;;13.70;10.40;;;7.80;99.90;;;;;;5016573;28;20471;-70
2023/01/08 07:52:27;;;;;;;16.13;11.40;;;7.80;99.90;;;;;;5017156;28;21049;-72
2023/01/08 07:54:54;;;;;;;16.13;12.47;;;7.80;99.90;;;;;;5011316;28;20446;-71
2023/01/08 07:57:20;;;;;;;18.80;13.90;;;7.80;99.90;;;;;;5024690;28;20457;-71
2023/01/08 07:59:47;;;;;;;23.80;15.50;;;7.80;99.90;;;;;;5011300;28;20544;-71
2023/01/08 08:02:15;;;;;;;18.10;13.80;;;7.80;99.90;;;;;;5024205;28;21198;-71
2023/01/08 08:04:42;;;;;;;20.57;15.07;;;7.80;99.90;;;;;;5025066;28;20508;-72
2023/01/08 08:07:08;;;;;;;28.00;16.30;;;7.90;99.90;;;;;;5016554;28;20523;-72
2023/01/08 08:09:35;;;;;;;21.00;14.73;;;7.80;99.90;;;;;;5021828;28;20455;-71
2023/01/08 08:12:01;;;;;;;25.30;14.83;;;7.80;99.90;;;;;;5025590;28;20517;-72
2023/01/08 08:14:28;;;;;;;21.70;15.50;;;7.80;99.90;;;;;;5024529;28;20511;-71
2023/01/08 08:16:55;;;;;;;24.80;15.97;;;7.80;99.90;;;;;;5023698;28;20455;-71
2023/01/08 08:19:22;;;;;;;21.27;13.93;;;7.80;99.90;;;;;;5023414;28;20563;-72
2023/01/08 08:21:49;;;;;;;21.60;14.97;;;7.80;99.90;;;;;;5015025;28;20509;-73
2023/01/08 08:24:16;;;;;;;18.67;13.50;;;7.80;99.90;;;;;;5022420;28;20465;-71
2023/01/08 08:26:42;;;;;;;13.10;10.47;;;7.80;99.90;;;;;;5021599;28;20462;-71
2023/01/08 08:29:09;;;;;;;13.87;9.43;;;7.80;99.90;;;;;;5021815;28;20873;-72
2023/01/08 08:31:35;;;;;;;14.53;9.40;;;7.80;99.90;;;;;;5025694;28;20474;-73
2023/01/08 08:34:02;;;;;;;12.27;9.60;;;7.90;99.90;;;;;;5022899;28;20461;-74
2023/01/08 08:36:30;;;;;;;11.27;8.93;;;7.90;99.90;;;;;;5022800;28;20458;-73
2023/01/08 08:38:57;;;;;;;11.13;9.37;;;7.90;99.90;;;;;;5025635;28;20519;-72
2023/01/08 08:41:24;;;;;;;12.93;9.30;;;7.90;99.90;;;;;;5026643;28;21086;-72
2023/01/08 08:43:50;;;;;;;11.47;7.90;;;7.90;99.90;;;;;;5022924;28;20463;-74
2023/01/08 08:46:17;;;;;;;8.57;7.23;;;7.90;99.90;;;;;;5027542;28;20532;-74
2023/01/08 08:48:45;;;;;;;9.47;7.83;;;7.90;99.90;;;;;;5023525;28;21011;-71
2023/01/08 08:51:11;;;;;;;8.47;7.47;;;7.90;99.90;;;;;;5024011;28;20556;-71
2023/01/08 08:53:39;;;;;;;8.13;7.27;;;7.90;99.90;;;;;;5026200;28;20462;-72
2023/01/08 08:56:07;;;;;;;8.83;7.13;;;7.90;99.90;;;;;;5017329;28;20871;-72
2023/01/08 08:58:33;;;;;;;9.47;7.77;;;7.90;99.90;;;;;;5027628;28;20454;-73
2023/01/08 09:01:02;;;;;;;11.73;8.50;;;7.90;99.90;;;;;;5024152;28;20490;-72
2023/01/08 09:03:29;;;;;;;10.10;8.70;;;7.90;99.90;;;;;;5012465;28;20451;-72
2023/01/08 09:05:56;;;;;;;18.43;8.97;;;7.90;99.90;;;;;;5019044;28;20455;-72
2023/01/08 09:08:22;;;;;;;11.60;8.63;;;7.90;99.90;;;;;;5027199;28;20466;-72
2023/01/08 09:10:50;;;;;;;11.97;7.83;;;7.90;99.90;;;;;;5023956;28;21064;-72
2023/01/08 09:13:17;;;;;;;13.90;8.53;;;7.90;99.90;;;;;;5021896;28;20516;-72
2023/01/08 09:15:44;;;;;;;8.20;7.20;;;7.90;99.90;;;;;;5017201;28;20803;-72
2023/01/08 09:18:11;;;;;;;9.03;8.13;;;7.90;99.90;;;;;;5026787;28;20453;-72
2023/01/08 09:20:37;;;;;;;9.40;8.30;;;7.90;99.90;;;;;;5021738;28;20494;-72
2023/01/08 09:23:05;;;;;;;12.60;8.00;;;7.90;99.90;;;;;;5027162;28;20893;-72
2023/01/08 09:25:32;;;;;;;9.27;8.37;;;7.90;99.90;;;;;;5024178;28;20453;-72
2023/01/08 09:28:01;;;;;;;9.03;7.80;;;7.90;99.90;;;;;;5024192;28;20477;-73
2023/01/08 09:30:28;;;;;;;10.60;7.73;;;7.90;99.90;;;;;;5028291;28;20481;-71
2023/01/08 09:32:57;;;;;;;9.20;7.20;;;7.90;99.90;;;;;;5025495;28;20458;-73
2023/01/08 09:35:23;;;;;;;8.40;6.90;;;7.90;99.90;;;;;;5015212;28;20966;-72
2023/01/08 09:37:50;;;;;;;7.60;6.87;;;7.90;99.90;;;;;;5014106;28;20451;-73
2023/01/08 09:40:18;;;;;;;5.80;5.03;;;7.90;99.90;;;;;;5025111;28;20462;-73
2023/01/08 09:42:55;;;;;;;6.23;5.63;;;8.00;99.90;;;;;;5017297;28;20207;-73
2023/01/08 09:45:26;;;;;;;5.47;4.97;;;8.00;99.90;;;;;;5023753;28;20528;-72
2023/01/08 09:47:54;;;;;;;5.13;4.63;;;8.00;99.90;;;;;;5024726;28;20466;-72
2023/01/08 09:50:21;;;;;;;6.73;5.37;;;8.00;99.90;;;;;;5023128;28;20477;-72
2023/01/08 09:52:48;;;;;;;7.50;5.70;;;8.00;99.90;;;;;;5024421;28;20446;-71
2023/01/08 09:55:16;;;;;;;5.80;5.30;;;8.00;99.90;;;;;;5025840;28;20513;-72
2023/01/08 09:57:43;;;;;;;7.97;5.20;;;8.00;99.90;;;;;;5024270;28;20516;-71
2023/01/08 10:00:14;;;;;;;5.47;4.93;;;8.00;99.90;;;;;;5022486;28;20501;-71
2023/01/08 10:02:43;;;;;;;5.60;5.03;;;8.00;99.90;;;;;;5022055;28;20457;-71
2023/01/08 10:05:13;;;;;;;6.30;5.70;;;8.10;99.90;;;;;;5027372;28;20455;-71
2023/01/08 10:07:40;;;;;;;6.23;5.40;;;8.10;99.90;;;;;;5023109;28;20958;-71
2023/01/08 10:10:18;;;;;;;5.73;4.60;;;8.10;99.90;;;;;;5021288;28;20470;-71
2023/01/08 10:12:45;;;;;;;5.90;4.77;;;8.10;99.90;;;;;;5023321;28;20466;-72
2023/01/08 10:15:15;;;;;;;5.10;4.70;;;8.10;99.90;;;;;;5029835;28;21004;-72
2023/01/08 10:17:47;;;;;;;5.57;5.07;;;8.10;99.90;;;;;;5027478;28;20868;-72
2023/01/08 10:20:15;;;;;;;5.03;4.63;;;8.10;99.90;;;;;;5022104;28;20548;-72
2023/01/08 10:22:42;;;;;;;6.10;5.50;;;8.10;99.90;;;;;;5023458;28;20462;-71
2023/01/08 10:25:12;;;;;;;6.57;5.97;;;8.20;99.90;;;;;;5028086;28;20453;-71
2023/01/08 10:27:47;;;;;;;6.17;5.67;;;8.20;99.90;;;;;;5028365;28;20458;-73
2023/01/08 10:30:19;;;;;;;7.90;7.03;;;8.20;99.90;;;;;;5024873;28;20544;-72
2023/01/08 10:32:50;;;;;;;8.00;6.30;;;8.20;99.90;;;;;;5028587;28;20458;-72
2023/01/08 10:35:21;;;;;;;11.90;6.50;;;8.20;99.90;;;;;;5028427;28;20458;-71
2023/01/08 10:37:49;;;;;;;6.57;5.97;;;8.20;99.90;;;;;;5028165;28;20457;-72
2023/01/08 10:40:25;;;;;;;6.30;5.00;;;8.20;99.90;;;;;;5028472;28;20599;-71
2023/01/08 10:42:52;;;;;;;6.63;5.93;;;8.20;99.90;;;;;;5028021;28;20466;-71
2023/01/08 10:45:22;;;;;;;5.43;4.93;;;8.20;99.90;;;;;;5028223;28;20516;-71
2023/01/08 10:47:52;;;;;;;5.90;5.30;;;8.20;99.90;;;;;;5028039;28;20450;-71
2023/01/08 10:50:22;;;;;;;6.90;5.80;;;8.20;99.90;;;;;;5028305;28;20528;-72
2023/01/08 10:52:53;;;;;;;8.53;6.30;;;8.20;99.90;;;;;;5027732;28;20462;-71
2023/01/08 10:55:23;;;;;;;8.07;6.73;;;8.20;99.90;;;;;;5027119;28;20941;-71
2023/01/08 10:57:55;;;;;;;7.90;6.83;;;8.20;99.90;;;;;;5027668;28;20458;-71
2023/01/08 11:00:24;;;;;;;8.17;6.40;;;8.20;99.90;;;;;;5027430;28;20490;-71
2023/01/08 11:02:52;;;;;;;10.03;6.70;;;8.20;99.90;;;;;;5028084;28;20459;-71
2023/01/08 11:05:19;;;;;;;15.10;7.70;;;8.10;99.90;;;;;;5027086;28;20823;-71
2023/01/08 11:07:50;;;;;;;8.03;7.27;;;8.20;99.90;;;;;;5026890;28;20458;-71
2023/01/08 11:10:23;;;;;;;12.67;8.70;;;8.10;99.90;;;;;;5027752;28;20477;-71
2023/01/08 11:12:55;;;;;;;10.97;8.63;;;8.20;99.90;;;;;;5027728;28;20910;-72
2023/01/08 11:15:34;;;;;;;11.07;7.50;;;8.20;99.90;;;;;;5027766;28;20509;-71
2023/01/08 11:18:19;;;;;;;9.20;8.10;;;8.20;99.90;;;;;;5027494;28;20457;-71
2023/01/08 11:20:47;;;;;;;9.27;7.70;;;8.20;99.90;;;;;;5025626;28;20552;-71
2023/01/08 11:23:20;;;;;;;7.17;6.50;;;8.20;99.90;;;;;;5018344;28;20459;-72
2023/01/08 11:25:55;;;;;;;8.10;7.30;;;8.30;99.90;;;;;;5021886;28;20461;-70
2023/01/08 11:28:29;;;;;;;8.00;7.20;;;8.30;99.90;;;;;;5019179;28;20481;-71
2023/01/08 11:31:11;;;;;;;11.00;8.73;;;8.30;99.90;;;;;;5018761;28;20473;-71
2023/01/08 11:33:40;;;;;;;10.67;8.83;;;8.40;99.90;;;;;;5021581;28;20455;-72
2023/01/08 11:36:11;;;;;;;13.30;9.87;;;8.40;99.90;;;;;;5027351;28;20450;-71
2023/01/08 11:38:38;;;;;;;9.70;7.90;;;8.40;99.90;;;;;;5026030;28;20454;-72
2023/01/08 11:41:14;;;;;;;11.10;7.77;;;8.40;99.90;;;;;;5020641;28;22262;-71
2023/01/08 11:43:51;;;;;;;8.87;7.47;;;8.30;99.90;;;;;;5023284;28;20457;-71
2023/01/08 11:46:32;;;;;;;6.70;5.80;;;8.30;99.90;;;;;;5014966;28;20525;-71
2023/01/08 11:49:27;;;;;;;7.80;7.10;;;8.30;99.90;;;;;;5019487;28;20969;-71
2023/01/08 11:52:07;;;;;;;7.93;7.03;;;8.40;99.90;;;;;;5022700;28;20817;-71
2023/01/08 11:54:49;;;;;;;8.37;7.47;;;8.40;99.90;;;;;;5010783;28;20450;-72
2023/01/08 11:57:26;;;;;;;11.13;9.93;;;8.40;99.90;;;;;;5024716;28;20461;-71
2023/01/08 12:00:03;;;;;;;16.63;10.47;;;8.40;99.90;;;;;;5015940;28;20470;-72
2023/01/08 12:02:49;;;;;;;10.57;9.50;;;8.50;99.90;;;;;;5019366;28;20466;-72
2023/01/08 12:05:27;;;;;;;10.50;8.77;;;8.50;99.90;;;;;;5018569;28;20454;-70
2023/01/08 12:08:00;;;;;;;13.60;10.40;;;8.60;99.90;;;;;;5013308;28;20451;-71
2023/01/08 12:10:36;;;;;;;9.93;8.90;;;8.60;99.90;;;;;;5016708;28;20535;-72
2023/01/08 12:13:14;;;;;;;13.97;10.60;;;8.60;99.90;;;;;;5026465;28;20492;-71
2023/01/08 12:15:50;;;;;;;10.47;9.33;;;8.50;99.90;;;;;;5021599;28;20446;-72
2023/01/08 12:18:42;;;;;;;10.53;9.30;;;8.50;99.90;;;;;;5016629;28;20466;-69
2023/01/08 12:21:16;;;;;;;11.60;9.70;;;8.50;99.90;;;;;;5017856;28;20490;-68
2023/01/08 12:23:58;;;;;;;11.45;10.25;;;8.60;99.90;;;;;;5020583;28;20400;-71
2023/01/08 12:26:35;;;;;;;16.87;11.00;;;8.60;99.90;;;;;;5025503;28;20237;-71
2023/01/08 12:29:29;;;;;;;11.87;8.90;;;8.70;99.90;;;;;;5018775;28;20458;-71
2023/01/08 12:32:28;;;;;;;4.73;4.37;;;8.80;99.90;;;;;;5022730;28;20454;-70
2023/01/08 12:35:00;;;;;;;5.97;4.00;;;8.80;99.90;;;;;;5028740;28;20523;-71
2023/01/08 12:37:34;;;;;;;4.03;3.70;;;8.90;99.90;;;;;;5026128;28;20454;-73
2023/01/08 12:40:06;;;;;;;3.80;3.50;;;9.00;99.90;;;;;;5020632;28;20478;-71
2023/01/08 12:42:37;;;;;;;7.27;4.03;;;9.10;99.90;;;;;;5020991;28;20470;-71
2023/01/08 12:45:07;;;;;;;8.27;3.90;;;9.10;99.90;;;;;;5017407;28;20507;-72
2023/01/08 12:47:37;;;;;;;5.80;3.90;;;9.20;99.90;;;;;;5030250;28;20862;-71
2023/01/08 12:50:17;;;;;;;4.27;3.80;;;9.30;99.90;;;;;;5027466;28;20520;-70
2023/01/08 12:52:52;;;;;;;4.13;3.83;;;9.30;99.90;;;;;;5022697;28;20946;-71
2023/01/08 12:55:30;;;;;;;4.37;4.07;;;9.20;99.90;;;;;;5023131;28;20460;-71